createdAt,value
2023-03-02T00:00:57.227Z,6.60
2023-03-02T00:03:23.987Z,6.15
2023-03-02T00:05:50.745Z,6.03
2023-03-02T00:08:17.445Z,5.82
2023-03-02T00:10:44.160Z,5.43
2023-03-02T00:13:10.927Z,5.90
2023-03-02T00:15:37.918Z,5.00
2023-03-02T00:18:04.732Z,5.32
2023-03-02T00:20:31.467Z,6.32
2023-03-02T00:22:58.162Z,5.47
2023-03-02T00:25:24.925Z,6.45
2023-03-02T00:27:51.680Z,7.03
2023-03-02T00:30:18.485Z,8.63
2023-03-02T00:32:45.824Z,9.52
2023-03-02T00:35:12.595Z,7.45
2023-03-02T00:37:39.425Z,8.70
2023-03-02T00:40:09.697Z,6.50
2023-03-02T00:42:36.567Z,7.00
2023-03-02T00:45:03.436Z,6.60
2023-03-02T00:47:30.221Z,7.22
2023-03-02T00:49:57.032Z,7.40
2023-03-02T00:52:23.859Z,9.80
2023-03-02T00:54:51.018Z,9.40
2023-03-02T00:57:18.054Z,9.32
2023-03-02T00:59:45.048Z,10.02
2023-03-02T01:02:25.231Z,8.50
2023-03-02T01:04:53.430Z,9.00
2023-03-02T01:07:20.850Z,8.10
2023-03-02T01:09:48.631Z,9.15
2023-03-02T01:12:15.568Z,9.18
2023-03-02T01:14:42.312Z,9.80
2023-03-02T01:17:09.444Z,9.10
2023-03-02T01:19:36.143Z,8.43
2023-03-02T01:22:02.876Z,10.95
2023-03-02T01:24:29.594Z,10.85
2023-03-02T01:26:56.395Z,10.45
2023-03-02T01:29:23.138Z,8.95
2023-03-02T01:31:50.095Z,9.98
2023-03-02T01:34:16.864Z,11.18
2023-03-02T01:36:46.225Z,10.13
2023-03-02T01:39:15.976Z,10.48
2023-03-02T01:41:43.258Z,11.73
2023-03-02T01:44:09.994Z,10.85
2023-03-02T01:46:36.787Z,12.00
2023-03-02T01:49:03.977Z,10.93
2023-03-02T01:51:39.613Z,13.25
2023-03-02T01:54:06.520Z,10.82
2023-03-02T01:56:34.629Z,13.18
2023-03-02T01:59:02.069Z,13.50
2023-03-02T02:01:28.946Z,12.30
2023-03-02T02:03:55.710Z,12.23
2023-03-02T02:06:22.442Z,15.23
2023-03-02T02:08:49.868Z,13.10
2023-03-02T02:11:16.674Z,14.48
2023-03-02T02:13:43.371Z,15.25
2023-03-02T02:16:10.215Z,12.30
2023-03-02T02:18:37.009Z,12.82
2023-03-02T02:21:05.004Z,14.52
2023-03-02T02:23:31.786Z,12.43
2023-03-02T02:25:58.557Z,12.25
2023-03-02T02:28:25.355Z,11.85
2023-03-02T02:30:52.109Z,11.65
2023-03-02T02:33:18.848Z,11.65
2023-03-02T02:35:45.595Z,9.27
2023-03-02T02:38:13.016Z,11.88
2023-03-02T02:40:39.813Z,12.68
2023-03-02T02:43:07.042Z,12.48
2023-03-02T02:45:36.015Z,11.98
2023-03-02T02:48:03.013Z,11.70
2023-03-02T02:50:29.794Z,13.15
2023-03-02T02:52:56.931Z,11.88
2023-03-02T02:55:23.610Z,13.65
2023-03-02T02:57:52.037Z,12.05
2023-03-02T03:00:18.736Z,16.60
2023-03-02T03:02:45.898Z,13.35
2023-03-02T03:05:12.760Z,11.90
2023-03-02T03:07:39.661Z,14.57
2023-03-02T03:10:07.676Z,12.52
2023-03-02T03:12:34.779Z,13.85
2023-03-02T03:15:02.135Z,15.23
2023-03-02T03:17:28.896Z,11.73
2023-03-02T03:20:06.335Z,13.32
2023-03-02T03:22:35.888Z,13.32
2023-03-02T03:25:03.153Z,13.73
2023-03-02T03:27:29.934Z,19.23
2023-03-02T03:29:57.386Z,13.00
2023-03-02T03:32:24.238Z,15.60
2023-03-02T03:34:54.370Z,15.55
2023-03-02T03:37:26.421Z,15.82
2023-03-02T03:39:53.705Z,16.30
2023-03-02T03:42:20.767Z,16.48
2023-03-02T03:44:47.718Z,14.70
2023-03-02T03:47:14.717Z,15.38
2023-03-02T03:49:41.697Z,16.05
2023-03-02T03:52:09.042Z,19.88
2023-03-02T03:54:35.848Z,15.30
2023-03-02T03:57:02.710Z,18.65
2023-03-02T03:59:29.419Z,17.35
2023-03-02T04:01:59.978Z,16.85
2023-03-02T04:04:34.062Z,17.65
2023-03-02T04:07:04.831Z,16.25
2023-03-02T04:09:37.734Z,15.50
2023-03-02T04:12:05.441Z,15.95
2023-03-02T04:14:32.817Z,16.50
2023-03-02T04:16:59.554Z,17.77
2023-03-02T04:19:26.408Z,18.02
2023-03-02T04:21:58.449Z,15.27
2023-03-02T04:24:26.030Z,15.98
2023-03-02T04:26:55.824Z,16.38
2023-03-02T04:29:23.673Z,14.95
2023-03-02T04:31:51.572Z,14.95
2023-03-02T04:34:20.394Z,16.98
2023-03-02T04:36:47.873Z,17.98
2023-03-02T04:39:15.412Z,18.67
2023-03-02T04:41:44.913Z,18.98
2023-03-02T04:44:11.625Z,19.85
2023-03-02T04:46:38.403Z,18.35
2023-03-02T04:49:05.127Z,18.58
2023-03-02T04:51:31.895Z,21.15
2023-03-02T04:53:58.634Z,20.67
2023-03-02T04:56:25.333Z,18.27
2023-03-02T04:58:52.039Z,21.80
2023-03-02T05:01:18.818Z,21.05
2023-03-02T05:03:45.509Z,21.38
2023-03-02T05:06:12.267Z,20.67
2023-03-02T05:08:38.956Z,21.48
2023-03-02T05:11:06.380Z,21.13
2023-03-02T05:13:33.163Z,23.17
2023-03-02T05:16:00.094Z,19.63
2023-03-02T05:18:26.817Z,22.90
2023-03-02T05:20:53.569Z,21.17
2023-03-02T05:23:28.644Z,20.98
2023-03-02T05:25:55.407Z,21.25
2023-03-02T05:28:22.109Z,26.90
2023-03-02T05:30:48.793Z,21.83
2023-03-02T05:33:15.519Z,21.63
2023-03-02T05:35:42.279Z,21.90
2023-03-02T05:38:09.144Z,22.10
2023-03-02T05:40:35.874Z,21.45
2023-03-02T05:43:02.576Z,19.63
2023-03-02T05:45:29.276Z,20.63
2023-03-02T05:47:55.975Z,21.02
2023-03-02T05:50:22.693Z,21.58
2023-03-02T05:52:49.400Z,21.42
2023-03-02T05:55:16.134Z,22.23
2023-03-02T05:57:42.840Z,21.80
2023-03-02T06:00:10.184Z,20.38
2023-03-02T06:02:40.357Z,21.42
2023-03-02T06:05:07.070Z,22.45
2023-03-02T06:07:33.910Z,21.27
2023-03-02T06:10:00.630Z,21.35
2023-03-02T06:12:27.422Z,20.70
2023-03-02T06:14:54.203Z,22.00
2023-03-02T06:17:20.891Z,21.65
2023-03-02T06:19:47.601Z,23.23
2023-03-02T06:22:14.276Z,20.88
2023-03-02T06:24:40.978Z,20.23
2023-03-02T06:27:07.760Z,18.90
2023-03-02T06:29:34.438Z,22.38
2023-03-02T06:32:01.255Z,23.45
2023-03-02T06:34:29.531Z,25.70
2023-03-02T06:36:56.265Z,23.08
2023-03-02T06:39:22.972Z,23.80
2023-03-02T06:41:49.713Z,24.17
2023-03-02T06:44:16.432Z,21.08
2023-03-02T06:46:43.228Z,25.02
2023-03-02T06:49:09.921Z,22.63
2023-03-02T06:51:36.637Z,24.65
2023-03-02T06:54:03.479Z,26.65
2023-03-02T06:56:30.253Z,28.90
2023-03-02T06:58:57.034Z,24.00
2023-03-02T07:01:23.887Z,25.95
2023-03-02T07:03:50.622Z,25.63
2023-03-02T07:06:17.424Z,26.08
2023-03-02T07:08:44.224Z,26.63
2023-03-02T07:11:10.901Z,21.52
2023-03-02T07:13:40.625Z,24.02
2023-03-02T07:16:07.454Z,29.90
2023-03-02T07:18:34.138Z,24.10
2023-03-02T07:21:00.851Z,29.80
2023-03-02T07:23:27.550Z,26.73
2023-03-02T07:25:54.249Z,26.15
2023-03-02T07:28:22.073Z,30.88
2023-03-02T07:30:48.798Z,33.15
2023-03-02T07:33:15.600Z,34.70
2023-03-02T07:35:42.332Z,32.38
2023-03-02T07:38:09.053Z,31.52
2023-03-02T07:40:37.723Z,33.63
2023-03-02T07:43:04.422Z,36.05
2023-03-02T07:45:31.141Z,29.02
2023-03-02T07:47:57.901Z,30.88
2023-03-02T07:50:24.659Z,33.65
2023-03-02T07:52:51.476Z,30.35
2023-03-02T07:55:18.162Z,27.70
2023-03-02T07:57:44.866Z,32.53
2023-03-02T08:00:11.614Z,28.70
2023-03-02T08:02:38.350Z,30.10
2023-03-02T08:05:05.101Z,28.55
2023-03-02T08:07:31.819Z,31.00
2023-03-02T08:10:00.932Z,31.60
2023-03-02T08:12:27.798Z,31.60
2023-03-02T08:14:54.512Z,29.42
2023-03-02T08:17:21.281Z,30.23
2023-03-02T08:19:48.049Z,33.28
2023-03-02T08:22:14.743Z,30.45
2023-03-02T08:24:41.976Z,32.42
2023-03-02T08:27:08.687Z,27.60
2023-03-02T08:29:35.383Z,34.35
2023-03-02T08:32:02.269Z,33.92
2023-03-02T08:34:29.043Z,33.17
2023-03-02T08:36:55.808Z,30.08
2023-03-02T08:39:23.587Z,31.33
2023-03-02T08:41:50.339Z,31.67
2023-03-02T08:44:17.824Z,32.50
2023-03-02T08:46:44.578Z,38.30
2023-03-02T08:49:11.261Z,29.65
2023-03-02T08:51:37.954Z,30.85
2023-03-02T08:54:04.704Z,31.95
2023-03-02T08:56:31.684Z,29.05
2023-03-02T08:58:58.563Z,32.20
2023-03-02T09:01:25.320Z,32.83
2023-03-02T09:03:52.041Z,32.78
2023-03-02T09:06:18.754Z,37.47
2023-03-02T09:08:45.651Z,31.65
2023-03-02T09:11:12.391Z,31.60
2023-03-02T09:13:39.134Z,34.15
2023-03-02T09:16:05.886Z,37.00
2023-03-02T09:18:32.551Z,32.70
2023-03-02T09:21:01.141Z,35.88
2023-03-02T09:23:27.841Z,34.25
2023-03-02T09:25:54.618Z,29.90
2023-03-02T09:28:24.458Z,31.27
2023-03-02T09:30:51.279Z,28.88
2023-03-02T09:33:18.061Z,32.47
2023-03-02T09:35:45.623Z,38.58
2023-03-02T09:38:16.059Z,35.00
2023-03-02T09:40:42.853Z,32.55
2023-03-02T09:43:09.680Z,32.75
2023-03-02T09:45:36.456Z,36.10
2023-03-02T09:48:03.296Z,33.80
2023-03-02T09:50:30.384Z,32.10
2023-03-02T09:52:58.112Z,34.33
2023-03-02T09:55:24.875Z,30.67
2023-03-02T09:57:51.883Z,32.15
2023-03-02T10:00:20.191Z,30.25
2023-03-02T10:02:47.655Z,27.67
2023-03-02T10:05:14.603Z,33.35
2023-03-02T10:07:41.443Z,35.97
2023-03-02T10:10:08.131Z,32.17
2023-03-02T10:12:34.862Z,32.28
2023-03-02T10:15:01.625Z,28.80
2023-03-02T10:17:28.322Z,27.80
2023-03-02T10:19:55.050Z,28.23
2023-03-02T10:22:21.759Z,30.33
2023-03-02T10:24:48.491Z,27.63
2023-03-02T10:27:15.180Z,26.88
2023-03-02T10:29:41.884Z,35.00
2023-03-02T10:32:08.642Z,27.20
2023-03-02T10:34:35.387Z,28.65
2023-03-02T10:37:02.958Z,25.33
2023-03-02T10:39:29.735Z,27.80
2023-03-02T10:41:56.447Z,31.20
2023-03-02T10:44:23.187Z,26.23
2023-03-02T10:46:51.269Z,29.15
2023-03-02T10:49:20.958Z,27.38
2023-03-02T10:51:48.000Z,29.85
2023-03-02T10:54:14.736Z,27.02
2023-03-02T10:56:41.422Z,27.10
2023-03-02T10:59:08.118Z,28.45
2023-03-02T11:01:34.975Z,27.15
2023-03-02T11:04:01.766Z,27.80
2023-03-02T11:06:28.548Z,26.48
2023-03-02T11:08:55.231Z,24.30
2023-03-02T11:11:22.048Z,27.05
2023-03-02T11:13:48.866Z,27.92
2023-03-02T11:16:15.608Z,27.60
2023-03-02T11:18:42.381Z,21.73
2023-03-02T11:21:09.178Z,23.95
2023-03-02T11:23:35.841Z,22.90
2023-03-02T11:26:02.728Z,24.65
2023-03-02T11:28:29.496Z,22.52
2023-03-02T11:30:56.255Z,26.27
2023-03-02T11:33:23.113Z,21.85
2023-03-02T11:35:49.930Z,27.98
2023-03-02T11:38:16.759Z,21.85
2023-03-02T11:40:45.043Z,25.17
2023-03-02T11:43:13.846Z,24.15
2023-03-02T11:45:42.001Z,23.85
2023-03-02T11:48:08.703Z,22.75
2023-03-02T11:50:35.551Z,22.60
2023-03-02T11:53:02.318Z,23.80
2023-03-02T11:55:29.170Z,24.95
2023-03-02T11:57:56.265Z,22.35
2023-03-02T12:00:23.068Z,23.15
2023-03-02T12:02:49.790Z,22.33
2023-03-02T12:05:16.622Z,23.38
2023-03-02T12:07:44.614Z,25.83
2023-03-02T12:10:11.588Z,21.77
2023-03-02T12:12:38.811Z,22.52
2023-03-02T12:15:05.609Z,21.08
2023-03-02T12:17:33.712Z,21.95
2023-03-02T12:20:00.444Z,23.02
2023-03-02T12:22:27.249Z,25.70
2023-03-02T12:24:53.938Z,22.38
2023-03-02T12:27:23.124Z,20.10
2023-03-02T12:29:49.925Z,26.02
2023-03-02T12:32:16.836Z,24.83
2023-03-02T12:34:43.654Z,23.30
2023-03-02T12:37:10.424Z,21.88
2023-03-02T12:39:37.118Z,23.67
2023-03-02T12:42:03.863Z,26.50
2023-03-02T12:44:31.715Z,19.40
2023-03-02T12:46:58.409Z,24.58
2023-03-02T12:49:25.180Z,26.13
2023-03-02T12:51:52.102Z,20.13
2023-03-02T12:54:18.920Z,19.90
2023-03-02T12:56:45.729Z,18.80
2023-03-02T12:59:12.491Z,18.25
2023-03-02T13:01:39.196Z,25.75
2023-03-02T13:04:06.021Z,23.08
2023-03-02T13:06:32.895Z,17.65
2023-03-02T13:09:00.523Z,17.40
2023-03-02T13:11:27.293Z,21.38
2023-03-02T13:13:54.042Z,18.63
2023-03-02T13:16:21.143Z,17.23
2023-03-02T13:18:49.492Z,19.60
2023-03-02T13:21:16.211Z,24.00
2023-03-02T13:23:43.015Z,16.73
2023-03-02T13:26:09.725Z,13.77
2023-03-02T13:28:36.642Z,15.00
2023-03-02T13:31:03.466Z,16.15
2023-03-02T13:33:30.292Z,17.38
2023-03-02T13:35:57.044Z,14.05
2023-03-02T13:38:23.763Z,16.10
2023-03-02T13:40:51.443Z,18.13
2023-03-02T13:43:18.162Z,14.48
2023-03-02T13:45:44.920Z,15.25
2023-03-02T13:48:11.668Z,13.68
2023-03-02T13:50:38.479Z,14.40
2023-03-02T13:53:07.072Z,16.23
2023-03-02T13:55:33.811Z,13.93
2023-03-02T13:58:00.539Z,14.73
2023-03-02T14:00:27.276Z,11.35
2023-03-02T14:02:54.320Z,12.23
2023-03-02T14:05:21.342Z,13.82
2023-03-02T14:07:48.275Z,12.00
2023-03-02T14:10:15.735Z,10.65
2023-03-02T14:12:42.607Z,12.13
2023-03-02T14:15:09.408Z,13.60
2023-03-02T14:17:36.415Z,9.82
2023-03-02T14:20:03.163Z,15.63
2023-03-02T14:22:30.277Z,10.63
2023-03-02T14:24:56.967Z,12.70
2023-03-02T14:27:23.698Z,14.43
2023-03-02T14:29:50.434Z,11.63
2023-03-02T14:32:17.508Z,12.48
2023-03-02T14:34:44.361Z,12.50
2023-03-02T14:37:11.078Z,10.30
2023-03-02T14:39:38.021Z,13.80
2023-03-02T14:42:04.771Z,13.23
2023-03-02T14:44:31.490Z,16.55
2023-03-02T14:46:58.512Z,11.05
2023-03-02T14:49:25.460Z,10.50
2023-03-02T14:51:52.140Z,9.45
2023-03-02T14:54:19.098Z,12.02
2023-03-02T14:56:45.930Z,15.73
2023-03-02T14:59:12.766Z,14.23
2023-03-02T15:01:40.134Z,16.95
2023-03-02T15:04:06.939Z,21.80
2023-03-02T15:06:34.099Z,15.68
2023-03-02T15:09:01.123Z,9.10
2023-03-02T15:11:28.125Z,10.52
2023-03-02T15:13:54.963Z,12.30
2023-03-02T15:16:21.758Z,10.77
2023-03-02T15:18:48.543Z,10.75
2023-03-02T15:21:15.257Z,11.40
2023-03-02T15:23:41.975Z,14.30
2023-03-02T15:26:08.763Z,9.90
2023-03-02T15:28:35.487Z,12.32
2023-03-02T15:31:02.333Z,11.35
2023-03-02T15:33:29.117Z,10.70
2023-03-02T15:35:55.881Z,9.77
2023-03-02T15:38:22.802Z,11.88
2023-03-02T15:40:49.648Z,9.30
2023-03-02T15:43:16.318Z,14.50
2023-03-02T15:45:43.064Z,11.65
2023-03-02T15:48:11.104Z,12.13
2023-03-02T15:50:39.363Z,12.00
2023-03-02T15:53:06.126Z,10.50
2023-03-02T15:55:32.860Z,8.27
2023-03-02T15:58:00.148Z,9.40
2023-03-02T16:00:26.884Z,12.07
2023-03-02T16:02:53.606Z,7.53
2023-03-02T16:05:20.417Z,8.98
2023-03-02T16:07:47.102Z,8.25
2023-03-02T16:10:16.492Z,7.28
2023-03-02T16:12:43.485Z,8.07
2023-03-02T16:15:10.309Z,7.05
2023-03-02T16:17:37.074Z,7.43
2023-03-02T16:20:04.017Z,5.82
2023-03-02T16:22:30.750Z,9.15
2023-03-02T16:24:57.571Z,12.07
2023-03-02T16:27:25.117Z,11.88
2023-03-02T16:29:52.077Z,10.45
2023-03-02T16:32:18.938Z,10.20
2023-03-02T16:34:45.701Z,9.32
2023-03-02T16:37:12.514Z,8.15
2023-03-02T16:39:39.337Z,9.18
2023-03-02T16:42:06.048Z,10.48
2023-03-02T16:44:32.738Z,10.52
2023-03-02T16:46:59.451Z,6.57
2023-03-02T16:49:26.173Z,10.30
2023-03-02T16:51:52.882Z,9.60
2023-03-02T16:54:19.652Z,11.65
2023-03-02T16:56:47.595Z,10.93
2023-03-02T16:59:14.505Z,8.38
2023-03-02T17:01:44.293Z,10.05
2023-03-02T17:04:11.119Z,8.02
2023-03-02T17:06:38.903Z,8.50
2023-03-02T17:09:05.744Z,11.60
2023-03-02T17:11:32.528Z,13.25
2023-03-02T17:13:59.304Z,10.02
2023-03-02T17:16:26.563Z,9.48
2023-03-02T17:18:53.385Z,12.98
2023-03-02T17:21:20.113Z,9.27
2023-03-02T17:23:48.189Z,7.82
2023-03-02T17:26:14.988Z,10.75
2023-03-02T17:28:41.737Z,8.93
2023-03-02T17:31:08.441Z,10.57
2023-03-02T17:33:35.186Z,10.40
2023-03-02T17:36:01.907Z,8.15
2023-03-02T17:38:28.649Z,12.45
2023-03-02T17:40:55.414Z,9.35
2023-03-02T17:43:22.267Z,11.18
2023-03-02T17:45:48.993Z,10.60
2023-03-02T17:48:15.749Z,11.35
2023-03-02T17:50:42.470Z,13.43
2023-03-02T17:53:09.199Z,12.73
2023-03-02T17:55:35.928Z,10.07
2023-03-02T17:58:02.789Z,10.55
2023-03-02T18:00:29.541Z,10.18
2023-03-02T18:02:56.240Z,9.25
2023-03-02T18:05:23.117Z,9.30
2023-03-02T18:07:51.619Z,8.60
2023-03-02T18:10:18.310Z,9.55
2023-03-02T18:12:45.029Z,11.40
2023-03-02T18:15:11.732Z,8.02
2023-03-02T18:17:38.474Z,11.40
2023-03-02T18:20:05.498Z,6.88
2023-03-02T18:22:32.321Z,9.45
2023-03-02T18:24:59.095Z,12.90
2023-03-02T18:27:25.976Z,8.55
2023-03-02T18:29:52.776Z,9.02
2023-03-02T18:32:19.621Z,13.10
2023-03-02T18:34:46.408Z,10.65
2023-03-02T18:37:13.137Z,9.70
2023-03-02T18:39:39.837Z,9.70
2023-03-02T18:42:06.656Z,9.40
2023-03-02T18:44:33.396Z,11.00
2023-03-02T18:47:00.976Z,9.02
2023-03-02T18:49:27.862Z,11.38
2023-03-02T18:51:56.537Z,9.32
2023-03-02T18:54:25.485Z,8.10
2023-03-02T18:56:52.665Z,8.93
2023-03-02T18:59:22.565Z,10.60
2023-03-02T19:01:52.364Z,8.02
2023-03-02T19:04:19.755Z,8.30
2023-03-02T19:06:46.531Z,9.45
2023-03-02T19:09:13.406Z,6.70
2023-03-02T19:11:40.369Z,13.13
2023-03-02T19:14:15.312Z,12.00
2023-03-02T19:16:42.398Z,10.52
2023-03-02T19:19:09.144Z,10.07
2023-03-02T19:21:38.901Z,11.57
2023-03-02T19:24:05.803Z,8.43
2023-03-02T19:26:32.702Z,7.45
2023-03-02T19:29:00.341Z,12.82
2023-03-02T19:31:27.729Z,9.32
2023-03-02T19:33:54.919Z,17.92
2023-03-02T19:36:21.602Z,11.65
2023-03-02T19:38:48.756Z,7.05
2023-03-02T19:41:16.123Z,6.93
2023-03-02T19:43:45.480Z,8.50
2023-03-02T19:46:15.506Z,7.38
2023-03-02T19:48:42.359Z,9.30
2023-03-02T19:51:09.501Z,6.10
2023-03-02T19:53:36.651Z,8.65
2023-03-02T19:56:03.368Z,6.60
2023-03-02T19:58:32.219Z,6.20
2023-03-02T20:00:59.005Z,7.38
2023-03-02T20:03:25.668Z,7.85
2023-03-02T20:05:52.406Z,9.05
2023-03-02T20:08:21.636Z,8.15
2023-03-02T20:10:49.494Z,7.45
2023-03-02T20:13:16.205Z,7.53
2023-03-02T20:15:44.285Z,7.20
2023-03-02T20:18:11.040Z,9.32
2023-03-02T20:20:37.756Z,8.75
2023-03-02T20:23:04.702Z,12.18
2023-03-02T20:25:31.422Z,8.52
2023-03-02T20:27:58.231Z,6.22
2023-03-02T20:30:27.705Z,8.48
2023-03-02T20:32:55.825Z,8.00
2023-03-02T20:35:22.700Z,6.38
2023-03-02T20:37:49.538Z,12.82
2023-03-02T20:40:16.293Z,9.10
2023-03-02T20:42:44.688Z,8.27
2023-03-02T20:45:11.468Z,9.98
2023-03-02T20:47:38.344Z,9.35
2023-03-02T20:50:05.047Z,8.85
2023-03-02T20:52:32.056Z,6.88
2023-03-02T20:54:58.764Z,12.38
2023-03-02T20:57:25.567Z,7.95
2023-03-02T20:59:52.440Z,10.20
2023-03-02T21:02:19.211Z,7.55
2023-03-02T21:04:46.045Z,9.90
2023-03-02T21:07:12.747Z,6.57
2023-03-02T21:09:39.442Z,9.10
2023-03-02T21:12:08.805Z,9.77
2023-03-02T21:14:35.667Z,10.98
2023-03-02T21:17:02.636Z,8.18
2023-03-02T21:19:34.090Z,8.18
2023-03-02T21:22:00.917Z,11.07
2023-03-02T21:24:27.572Z,9.90
2023-03-02T21:26:54.458Z,7.38
2023-03-02T21:29:21.127Z,10.07
2023-03-02T21:31:47.890Z,9.52
2023-03-02T21:34:14.701Z,7.70
2023-03-02T21:36:41.533Z,10.32
2023-03-02T21:39:08.380Z,9.55
2023-03-02T21:41:38.185Z,10.18
2023-03-02T21:44:05.607Z,10.40
2023-03-02T21:46:32.486Z,8.98
2023-03-02T21:48:59.309Z,13.73
2023-03-02T21:51:26.159Z,8.68
2023-03-02T21:53:55.994Z,13.65
2023-03-02T21:56:23.076Z,10.05
2023-03-02T21:58:49.879Z,10.85
2023-03-02T22:01:16.660Z,8.65
2023-03-02T22:03:43.408Z,8.40
2023-03-02T22:06:10.112Z,10.32
2023-03-02T22:08:37.623Z,10.20
2023-03-02T22:11:04.359Z,14.45
2023-03-02T22:13:31.203Z,11.95
2023-03-02T22:15:58.111Z,13.25
2023-03-02T22:18:27.050Z,8.43
2023-03-02T22:20:53.882Z,8.98
2023-03-02T22:23:23.661Z,9.52
2023-03-02T22:25:50.358Z,12.63
2023-03-02T22:28:17.044Z,13.50
2023-03-02T22:30:43.747Z,9.07
2023-03-02T22:33:10.439Z,8.20
2023-03-02T22:35:38.181Z,11.20
2023-03-02T22:38:04.909Z,11.20
2023-03-02T22:40:31.613Z,10.15
2023-03-02T22:42:58.354Z,14.10
2023-03-02T22:45:25.091Z,14.25
2023-03-02T22:47:52.545Z,8.00
2023-03-02T22:50:19.380Z,12.07
2023-03-02T22:52:46.161Z,14.38
2023-03-02T22:55:13.227Z,9.23
2023-03-02T22:57:40.004Z,8.73
2023-03-02T23:00:06.719Z,12.55
2023-03-02T23:02:33.439Z,7.50
2023-03-02T23:05:00.167Z,10.82
2023-03-02T23:07:26.955Z,10.90
2023-03-02T23:09:53.693Z,7.45
2023-03-02T23:12:20.422Z,8.93
2023-03-02T23:14:47.153Z,7.13
2023-03-02T23:17:14.297Z,8.95
2023-03-02T23:19:41.344Z,8.77
2023-03-02T23:22:08.303Z,10.55
2023-03-02T23:24:34.994Z,14.27
2023-03-02T23:27:01.981Z,7.80
2023-03-02T23:29:29.142Z,7.63
2023-03-02T23:31:55.969Z,7.25
2023-03-02T23:34:23.581Z,8.85
2023-03-02T23:36:50.398Z,9.85
2023-03-02T23:39:17.697Z,6.38
2023-03-02T23:41:44.516Z,6.38
2023-03-02T23:44:11.350Z,6.72
2023-03-02T23:46:38.056Z,7.85
2023-03-02T23:49:04.820Z,8.35
2023-03-02T23:51:31.614Z,10.23
2023-03-02T23:53:58.382Z,8.77
2023-03-02T23:56:25.137Z,8.48
2023-03-02T23:58:51.883Z,7.03
